createdAt,value
2022-09-22T00:01:52.053Z,4.28
2022-09-22T00:04:20.693Z,6.40
2022-09-22T00:06:51.450Z,4.97
2022-09-22T00:09:20.873Z,5.75
2022-09-22T00:11:49.927Z,5.45
2022-09-22T00:14:20.221Z,4.63
2022-09-22T00:16:49.587Z,3.90
2022-09-22T00:19:19.081Z,4.88
2022-09-22T00:21:48.403Z,5.43
2022-09-22T00:24:18.560Z,4.05
2022-09-22T00:26:48.011Z,5.47
2022-09-22T00:29:17.159Z,4.05
2022-09-22T00:31:46.585Z,4.95
2022-09-22T00:34:16.365Z,4.82
2022-09-22T00:36:45.267Z,4.55
2022-09-22T00:39:14.119Z,5.97
2022-09-22T00:41:45.335Z,4.40
2022-09-22T00:44:32.777Z,4.97
2022-09-22T00:47:03.347Z,4.78
2022-09-22T00:49:35.327Z,4.32
2022-09-22T00:52:04.360Z,5.03
2022-09-22T00:54:33.660Z,4.63
2022-09-22T00:57:06.677Z,6.70
2022-09-22T00:59:35.635Z,8.05
2022-09-22T01:02:04.290Z,7.63
2022-09-22T01:04:32.744Z,5.30
2022-09-22T01:07:01.723Z,4.07
2022-09-22T01:09:33.066Z,5.88
2022-09-22T01:12:01.879Z,6.32
2022-09-22T01:14:37.503Z,4.05
2022-09-22T01:17:10.628Z,3.58
2022-09-22T01:19:50.691Z,3.67
2022-09-22T01:22:29.124Z,6.40
2022-09-22T01:25:07.888Z,4.68
2022-09-22T01:27:51.276Z,3.78
2022-09-22T01:30:23.818Z,3.78
2022-09-22T01:33:00.686Z,3.50
2022-09-22T01:35:32.036Z,4.15
2022-09-22T01:38:04.842Z,4.50
2022-09-22T01:40:35.641Z,3.97
2022-09-22T01:43:08.692Z,4.00
2022-09-22T01:45:40.920Z,4.55
2022-09-22T01:48:14.029Z,4.15
2022-09-22T01:50:45.009Z,3.53
2022-09-22T01:53:15.487Z,4.75
2022-09-22T01:55:47.172Z,4.72
2022-09-22T01:58:16.913Z,3.78
2022-09-22T02:00:49.422Z,4.47
2022-09-22T02:03:21.827Z,4.30
2022-09-22T02:05:52.288Z,4.40
2022-09-22T02:08:23.561Z,3.72
2022-09-22T02:10:53.177Z,3.70
2022-09-22T02:13:21.918Z,4.90
2022-09-22T02:16:04.117Z,4.63
2022-09-22T02:18:34.377Z,5.45
2022-09-22T02:21:03.752Z,4.30
2022-09-22T02:23:33.370Z,4.45
2022-09-22T02:26:02.865Z,5.20
2022-09-22T02:28:32.689Z,3.70
2022-09-22T02:31:19.686Z,4.18
2022-09-22T02:33:49.331Z,5.05
2022-09-22T02:36:35.781Z,7.55
2022-09-22T02:39:07.818Z,9.85
2022-09-22T02:41:41.186Z,9.48
2022-09-22T02:44:13.423Z,6.82
2022-09-22T02:46:45.388Z,6.53
2022-09-22T02:49:15.485Z,4.30
2022-09-22T02:51:44.015Z,4.15
2022-09-22T02:54:14.870Z,4.18
2022-09-22T02:56:43.408Z,4.80
2022-09-22T02:59:12.586Z,3.55
2022-09-22T03:01:41.115Z,5.10
2022-09-22T03:04:10.947Z,3.97
2022-09-22T03:06:39.436Z,3.85
2022-09-22T03:09:07.863Z,3.28
2022-09-22T03:11:36.413Z,3.70
2022-09-22T03:14:04.987Z,3.53
2022-09-22T03:16:33.347Z,4.80
2022-09-22T03:19:01.764Z,3.97
2022-09-22T03:21:31.542Z,4.68
2022-09-22T03:24:00.048Z,5.45
2022-09-22T03:26:28.483Z,4.50
2022-09-22T03:28:56.952Z,4.03
2022-09-22T03:31:25.399Z,4.13
2022-09-22T03:33:53.957Z,4.10
2022-09-22T03:36:22.418Z,3.63
2022-09-22T03:38:53.069Z,4.35
2022-09-22T03:41:21.802Z,4.40
2022-09-22T03:43:50.513Z,5.82
2022-09-22T03:46:18.964Z,3.80
2022-09-22T03:48:47.376Z,3.83
2022-09-22T03:51:15.961Z,4.13
2022-09-22T03:53:44.357Z,4.03
2022-09-22T03:56:15.182Z,4.50
2022-09-22T03:58:44.020Z,6.28
2022-09-22T04:01:12.467Z,5.10
2022-09-22T04:03:41.023Z,4.30
2022-09-22T04:06:09.535Z,4.05
2022-09-22T04:08:38.099Z,5.10
2022-09-22T04:11:06.840Z,4.30
2022-09-22T04:13:36.637Z,4.70
2022-09-22T04:16:05.381Z,7.35
2022-09-22T04:18:33.826Z,8.27
2022-09-22T04:21:02.264Z,5.25
2022-09-22T04:23:30.600Z,7.78
2022-09-22T04:25:59.023Z,5.38
2022-09-22T04:28:27.379Z,6.68
2022-09-22T04:30:57.344Z,6.50
2022-09-22T04:33:26.188Z,7.32
2022-09-22T04:35:54.691Z,7.53
2022-09-22T04:38:23.127Z,7.68
2022-09-22T04:40:51.753Z,5.72
2022-09-22T04:43:20.153Z,7.75
2022-09-22T04:45:49.036Z,9.73
2022-09-22T04:48:18.990Z,8.10
2022-09-22T04:50:57.950Z,7.07
2022-09-22T04:53:26.437Z,6.18
2022-09-22T04:55:55.046Z,5.97
2022-09-22T04:58:24.059Z,8.20
2022-09-22T05:00:55.869Z,6.10
2022-09-22T05:03:25.662Z,5.78
2022-09-22T05:05:55.545Z,7.70
2022-09-22T05:08:23.946Z,5.65
2022-09-22T05:10:52.808Z,6.95
2022-09-22T05:13:21.467Z,8.68
2022-09-22T05:15:49.889Z,7.18
2022-09-22T05:18:18.283Z,9.93
2022-09-22T05:20:48.043Z,5.80
2022-09-22T05:23:16.405Z,8.10
2022-09-22T05:25:45.225Z,8.25
2022-09-22T05:28:13.607Z,10.35
2022-09-22T05:30:42.100Z,8.02
2022-09-22T05:33:10.536Z,8.98
2022-09-22T05:35:39.412Z,9.43
2022-09-22T05:38:09.202Z,7.75
2022-09-22T05:40:37.819Z,8.48
2022-09-22T05:43:06.337Z,9.90
2022-09-22T05:45:34.835Z,9.25
2022-09-22T05:48:03.532Z,10.98
2022-09-22T05:50:32.023Z,11.00
2022-09-22T05:53:07.963Z,10.70
2022-09-22T05:55:38.388Z,16.30
2022-09-22T05:58:07.025Z,8.65
2022-09-22T06:00:35.515Z,7.80
2022-09-22T06:03:04.083Z,18.05
2022-09-22T06:05:34.462Z,9.23
2022-09-22T06:08:06.502Z,13.43
2022-09-22T06:10:35.551Z,8.68
2022-09-22T06:13:05.751Z,9.05
2022-09-22T06:15:36.379Z,8.27
2022-09-22T06:18:07.186Z,11.43
2022-09-22T06:20:35.820Z,11.05
2022-09-22T06:23:04.228Z,11.18
2022-09-22T06:25:35.636Z,8.85
2022-09-22T06:28:06.170Z,8.43
2022-09-22T06:30:34.971Z,10.02
2022-09-22T06:33:03.352Z,10.55
2022-09-22T06:35:36.929Z,10.48
2022-09-22T06:38:06.453Z,9.30
2022-09-22T06:40:36.440Z,15.05
2022-09-22T06:43:12.997Z,13.00
2022-09-22T06:45:42.891Z,12.02
2022-09-22T06:48:12.450Z,42.00
2022-09-22T06:50:41.291Z,13.43
2022-09-22T06:53:11.366Z,10.23
2022-09-22T06:55:41.638Z,11.95
2022-09-22T06:58:12.453Z,14.82
2022-09-22T07:00:43.120Z,13.35
2022-09-22T07:03:17.979Z,15.40
2022-09-22T07:05:54.064Z,10.20
2022-09-22T07:08:22.984Z,13.95
2022-09-22T07:10:58.033Z,11.45
2022-09-22T07:13:29.955Z,11.43
2022-09-22T07:16:01.807Z,10.35
2022-09-22T07:18:30.494Z,12.23
2022-09-22T07:21:03.695Z,12.60
2022-09-22T07:23:34.771Z,15.63
2022-09-22T07:26:05.024Z,14.05
2022-09-22T07:28:35.493Z,14.50
2022-09-22T07:31:06.198Z,17.27
2022-09-22T07:33:34.731Z,15.57
2022-09-22T07:36:08.919Z,18.88
2022-09-22T07:38:37.960Z,15.25
2022-09-22T07:41:07.309Z,15.80
2022-09-22T07:43:37.394Z,14.88
2022-09-22T07:46:06.313Z,13.77
2022-09-22T07:48:37.929Z,13.05
2022-09-22T07:51:11.745Z,13.85
2022-09-22T07:53:45.835Z,12.73
2022-09-22T07:56:15.115Z,14.32
2022-09-22T07:58:46.944Z,14.35
2022-09-22T08:01:16.219Z,15.30
2022-09-22T08:03:46.293Z,9.45
2022-09-22T08:06:16.163Z,13.57
2022-09-22T08:08:46.241Z,13.13
2022-09-22T08:11:15.826Z,11.98
2022-09-22T08:13:50.990Z,12.70
2022-09-22T08:16:19.928Z,10.85
2022-09-22T08:18:51.637Z,10.23
2022-09-22T08:21:20.485Z,12.98
2022-09-22T08:23:52.867Z,11.82
2022-09-22T08:26:22.147Z,13.13
2022-09-22T08:28:54.500Z,11.15
2022-09-22T08:31:23.965Z,9.52
2022-09-22T08:33:53.242Z,10.52
2022-09-22T08:36:22.099Z,12.05
2022-09-22T08:38:51.025Z,12.35
2022-09-22T08:41:24.493Z,11.57
2022-09-22T08:43:56.337Z,9.70
2022-09-22T08:46:27.352Z,11.30
2022-09-22T08:49:15.480Z,9.00
2022-09-22T08:51:55.702Z,9.80
2022-09-22T08:54:31.550Z,7.82
2022-09-22T08:57:06.138Z,5.32
2022-09-22T08:59:39.500Z,6.85
2022-09-22T09:02:18.817Z,6.75
2022-09-22T09:05:03.234Z,8.23
2022-09-22T09:07:35.131Z,6.95
2022-09-22T09:10:09.687Z,9.15
2022-09-22T09:12:45.710Z,11.10
2022-09-22T09:15:24.562Z,8.55
2022-09-22T09:17:54.768Z,11.77
2022-09-22T09:20:31.424Z,7.60
2022-09-22T09:23:06.373Z,8.63
2022-09-22T09:25:40.060Z,6.53
2022-09-22T09:28:10.083Z,8.40
2022-09-22T09:30:44.344Z,6.43
2022-09-22T09:33:16.673Z,4.90
2022-09-22T09:35:48.516Z,7.32
2022-09-22T09:38:20.255Z,5.72
2022-09-22T09:40:52.991Z,15.35
2022-09-22T09:43:23.106Z,6.20
2022-09-22T09:45:58.450Z,4.95
2022-09-22T09:48:31.952Z,4.20
2022-09-22T09:51:05.299Z,6.00
2022-09-22T09:53:41.070Z,4.50
2022-09-22T09:56:21.886Z,4.97
2022-09-22T09:59:14.260Z,3.17
2022-09-22T10:01:47.702Z,5.82
2022-09-22T10:04:20.310Z,4.68
2022-09-22T10:06:48.994Z,3.50
2022-09-22T10:09:25.943Z,4.18
2022-09-22T10:12:02.761Z,4.15
2022-09-22T10:14:33.068Z,4.80
2022-09-22T10:17:14.614Z,3.70
2022-09-22T10:19:42.999Z,3.95
2022-09-22T10:22:18.060Z,5.78
2022-09-22T10:24:56.924Z,4.20
2022-09-22T10:27:26.198Z,3.63
2022-09-22T10:30:22.832Z,3.63
2022-09-22T10:33:13.141Z,3.97
2022-09-22T10:35:50.046Z,2.83
2022-09-22T10:38:20.994Z,3.33
2022-09-22T10:40:51.968Z,3.72
2022-09-22T10:43:37.116Z,2.80
2022-09-22T10:46:20.757Z,3.28
2022-09-22T10:48:53.350Z,2.38
2022-09-22T10:51:29.357Z,3.97
2022-09-22T10:54:18.509Z,3.22
2022-09-22T10:56:49.681Z,3.20
2022-09-22T10:59:27.663Z,3.25
2022-09-22T11:02:12.415Z,2.90
2022-09-22T11:04:53.242Z,3.15
2022-09-22T11:08:07.405Z,3.05
2022-09-22T11:10:56.928Z,2.45
2022-09-22T11:13:34.627Z,2.15
2022-09-22T11:16:19.533Z,4.75
2022-09-22T11:19:06.259Z,3.97
2022-09-22T11:21:43.955Z,3.38
2022-09-22T11:24:29.476Z,2.80
2022-09-22T11:26:59.073Z,3.67
2022-09-22T11:29:35.385Z,3.33
2022-09-22T11:32:12.119Z,2.45
2022-09-22T11:34:50.271Z,2.75
2022-09-22T11:37:29.398Z,3.33
2022-09-22T11:40:08.233Z,2.38
2022-09-22T11:42:45.634Z,3.28
2022-09-22T11:45:24.255Z,2.97
2022-09-22T11:48:01.643Z,2.97
2022-09-22T11:51:08.801Z,3.90
2022-09-22T11:54:02.151Z,2.55
2022-09-22T11:56:45.848Z,3.43
2022-09-22T11:59:34.977Z,2.17
2022-09-22T12:02:22.245Z,2.38
2022-09-22T12:05:34.619Z,2.92
2022-09-22T12:08:28.396Z,2.33
2022-09-22T12:10:59.809Z,2.15
2022-09-22T12:13:29.423Z,1.77
2022-09-22T12:18:44.511Z,2.38
2022-09-22T12:21:21.453Z,2.17
2022-09-22T12:24:14.569Z,1.98
2022-09-22T12:27:04.242Z,1.77
2022-09-22T12:29:42.033Z,2.10
2022-09-22T12:32:36.219Z,2.10
2022-09-22T12:35:32.178Z,1.73
2022-09-22T12:38:37.205Z,3.53
2022-09-22T12:41:46.953Z,2.13
2022-09-22T12:44:52.882Z,2.15
2022-09-22T12:47:58.856Z,2.08
2022-09-22T12:50:43.643Z,1.75
2022-09-22T12:53:14.945Z,2.97
2022-09-22T12:55:51.765Z,2.15
2022-09-22T12:58:45.559Z,3.60
2022-09-22T13:01:46.221Z,1.65
2022-09-22T13:07:37.922Z,1.58
2022-09-22T13:10:25.270Z,3.60
2022-09-22T13:13:16.581Z,1.73
2022-09-22T13:16:19.887Z,3.80
2022-09-22T13:19:15.600Z,2.33
2022-09-22T13:25:07.949Z,3.42
2022-09-22T13:30:37.047Z,2.20
2022-09-22T13:33:23.283Z,1.85
2022-09-22T13:36:30.847Z,1.95
2022-09-22T13:39:27.243Z,2.60
2022-09-22T13:42:28.407Z,3.97
2022-09-22T13:45:04.227Z,2.17
2022-09-22T13:47:48.291Z,2.03
2022-09-22T13:50:31.167Z,1.60
2022-09-22T13:55:54.816Z,1.75
2022-09-22T13:58:51.385Z,1.85
2022-09-22T14:01:22.327Z,2.70
2022-09-22T14:03:54.008Z,2.50
2022-09-22T14:06:28.050Z,2.45
2022-09-22T14:09:03.353Z,1.73
2022-09-22T14:14:31.039Z,2.70
2022-09-22T14:17:05.986Z,3.28
2022-09-22T14:19:47.728Z,2.33
2022-09-22T14:22:22.994Z,1.75
2022-09-22T14:25:00.933Z,3.15
2022-09-22T14:27:33.284Z,2.13
2022-09-22T14:30:05.117Z,3.28
2022-09-22T14:32:51.204Z,1.77
2022-09-22T14:35:43.443Z,2.90
2022-09-22T14:38:21.831Z,2.38
2022-09-22T14:41:23.993Z,2.15
2022-09-22T14:44:28.651Z,1.60
2022-09-22T14:47:51.100Z,1.95
2022-09-22T14:50:43.834Z,2.08
2022-09-22T14:53:29.022Z,2.72
2022-09-22T14:56:10.291Z,1.80
2022-09-22T14:59:05.116Z,3.78
2022-09-22T15:01:54.411Z,3.25
2022-09-22T15:04:40.858Z,2.13
2022-09-22T15:07:41.942Z,1.70
2022-09-22T15:10:54.754Z,2.60
2022-09-22T15:14:02.860Z,3.63
2022-09-22T15:18:21.059Z,4.10
2022-09-22T15:20:43.905Z,2.28
2022-09-22T15:23:54.219Z,2.15
2022-09-22T15:26:41.052Z,2.25
2022-09-22T15:29:41.278Z,1.77
2022-09-22T15:32:30.884Z,1.88
2022-09-22T15:35:04.855Z,2.20
2022-09-22T15:40:42.029Z,1.60
2022-09-22T15:43:34.609Z,1.90
2022-09-22T15:46:25.626Z,2.00
2022-09-22T15:52:07.525Z,2.72
2022-09-22T15:54:53.356Z,2.90
2022-09-22T15:57:47.653Z,4.65
2022-09-22T16:03:07.754Z,2.03
2022-09-22T16:05:58.228Z,2.22
2022-09-22T16:08:45.561Z,4.07
2022-09-22T16:11:52.103Z,3.75
2022-09-22T16:14:23.055Z,3.85
2022-09-22T16:17:11.783Z,7.20
2022-09-22T16:19:52.175Z,4.97
2022-09-22T16:22:46.808Z,3.42
2022-09-22T16:25:35.153Z,5.72
2022-09-22T16:28:17.395Z,4.47
2022-09-22T16:31:07.793Z,6.70
2022-09-22T16:33:45.545Z,4.13
2022-09-22T16:36:24.240Z,2.97
2022-09-22T16:39:06.027Z,3.92
2022-09-22T16:41:46.947Z,3.47
2022-09-22T16:44:47.321Z,3.33
2022-09-22T16:47:37.756Z,3.67
2022-09-22T16:50:10.524Z,3.53
2022-09-22T16:52:39.516Z,3.90
2022-09-22T16:55:08.613Z,5.53
2022-09-22T16:57:42.038Z,3.42
2022-09-22T17:00:12.585Z,3.33
2022-09-22T17:02:47.051Z,3.53
2022-09-22T17:05:16.076Z,2.35
2022-09-22T17:07:47.378Z,2.72
2022-09-22T17:10:19.499Z,3.70
2022-09-22T17:12:52.471Z,4.15
2022-09-22T17:15:22.104Z,4.18
2022-09-22T17:17:50.757Z,4.72
2022-09-22T17:20:19.327Z,4.65
2022-09-22T17:22:48.487Z,3.88
2022-09-22T17:25:17.100Z,3.17
2022-09-22T17:27:46.915Z,4.25
2022-09-22T17:30:21.586Z,3.90
2022-09-22T17:33:02.799Z,5.22
2022-09-22T17:35:31.790Z,11.90
2022-09-22T17:38:02.627Z,9.07
2022-09-22T17:40:31.499Z,10.13
2022-09-22T17:43:01.763Z,6.82
2022-09-22T17:45:34.656Z,6.53
2022-09-22T17:48:20.665Z,6.67
2022-09-22T17:51:08.798Z,7.38
2022-09-22T17:53:54.892Z,8.45
2022-09-22T17:56:23.929Z,4.45
2022-09-22T17:58:54.770Z,5.03
2022-09-22T18:01:25.062Z,5.10
2022-09-22T18:03:54.170Z,7.30
2022-09-22T18:06:35.025Z,6.95
2022-09-22T18:09:03.789Z,12.25
2022-09-22T18:11:35.425Z,5.80
2022-09-22T18:14:07.260Z,8.07
2022-09-22T18:16:38.769Z,7.85
2022-09-22T18:19:07.356Z,5.68
2022-09-22T18:21:35.772Z,6.97
2022-09-22T18:24:06.877Z,8.05
2022-09-22T18:26:38.207Z,7.85
2022-09-22T18:29:10.102Z,7.78
2022-09-22T18:31:39.962Z,7.47
2022-09-22T18:34:08.557Z,6.05
2022-09-22T18:36:37.308Z,5.28
2022-09-22T18:39:06.773Z,5.72
2022-09-22T18:41:37.826Z,5.85
2022-09-22T18:44:06.950Z,7.47
2022-09-22T18:46:36.519Z,5.90
2022-09-22T18:49:09.588Z,8.25
2022-09-22T18:51:39.162Z,5.07
2022-09-22T18:54:11.204Z,5.95
2022-09-22T18:56:43.003Z,7.28
2022-09-22T18:59:13.731Z,7.68
2022-09-22T19:01:56.465Z,7.68
2022-09-22T19:04:27.213Z,11.45
2022-09-22T19:07:14.367Z,12.27
2022-09-22T19:09:45.195Z,12.80
2022-09-22T19:12:13.989Z,21.55
2022-09-22T19:14:42.617Z,25.92
2022-09-22T19:17:11.850Z,21.05
2022-09-22T19:19:46.093Z,15.90
2022-09-22T19:22:14.601Z,8.40
2022-09-22T19:24:46.170Z,6.00
2022-09-22T19:27:15.495Z,7.25
2022-09-22T19:29:44.272Z,5.15
2022-09-22T19:32:12.720Z,5.00
2022-09-22T19:34:43.673Z,5.20
2022-09-22T19:37:12.126Z,5.03
2022-09-22T19:39:41.403Z,4.40
2022-09-22T19:45:27.221Z,7.43
2022-09-22T19:48:10.009Z,9.50
2022-09-22T19:50:51.097Z,10.90
2022-09-22T19:53:24.333Z,14.63
2022-09-22T19:55:56.190Z,14.63
2022-09-22T19:58:24.623Z,16.48
2022-09-22T20:01:07.849Z,13.70
2022-09-22T20:04:11.928Z,13.27
2022-09-22T20:06:42.169Z,16.20
2022-09-22T20:09:13.846Z,15.43
2022-09-22T20:11:56.233Z,15.80
2022-09-22T20:14:33.336Z,12.60
2022-09-22T20:17:14.753Z,11.95
2022-09-22T20:19:45.559Z,15.10
2022-09-22T20:22:54.889Z,15.95
2022-09-22T20:25:24.656Z,10.68
2022-09-22T20:27:53.353Z,12.63
2022-09-22T20:30:21.912Z,10.75
2022-09-22T20:39:26.983Z,9.20
2022-09-22T20:42:06.239Z,8.48
2022-09-22T20:45:05.040Z,6.53
2022-09-22T20:47:28.857Z,6.00
2022-09-22T20:50:11.621Z,6.15
2022-09-22T20:52:46.492Z,8.02
2022-09-22T20:55:28.344Z,9.55
2022-09-22T20:58:08.882Z,8.30
2022-09-22T21:00:54.404Z,7.22
2022-09-22T21:03:57.043Z,6.40
2022-09-22T21:06:25.860Z,6.45
2022-09-22T21:09:11.954Z,6.70
2022-09-22T21:11:54.883Z,7.18
2022-09-22T21:14:23.363Z,8.02
2022-09-22T21:17:13.981Z,10.93
2022-09-22T21:20:10.633Z,10.10
2022-09-22T21:22:39.091Z,8.88
2022-09-22T21:25:14.163Z,8.30
2022-09-22T21:27:45.262Z,6.03
2022-09-22T21:30:17.149Z,6.88
2022-09-22T21:32:45.538Z,7.13
2022-09-22T21:35:16.834Z,7.95
2022-09-22T21:37:45.834Z,10.98
2022-09-22T21:40:14.345Z,9.90
2022-09-22T21:42:47.145Z,8.50
2022-09-22T21:45:15.733Z,8.95
2022-09-22T21:47:57.952Z,9.60
2022-09-22T21:50:28.270Z,7.75
2022-09-22T21:52:59.074Z,7.60
2022-09-22T21:55:27.630Z,8.80
2022-09-22T21:57:57.422Z,8.30
2022-09-22T22:00:50.365Z,10.80
2022-09-22T22:03:32.839Z,8.63
2022-09-22T22:06:02.953Z,9.88
2022-09-22T22:08:36.333Z,9.35
2022-09-22T22:11:07.087Z,6.30
2022-09-22T22:13:38.424Z,6.28
2022-09-22T22:16:10.191Z,6.63
2022-09-22T22:18:39.433Z,7.15
2022-09-22T22:21:08.591Z,6.93
2022-09-22T22:23:38.435Z,6.72
2022-09-22T22:26:09.942Z,6.65
2022-09-22T22:28:39.970Z,7.70
2022-09-22T22:31:09.533Z,8.23
2022-09-22T22:33:38.741Z,8.00
2022-09-22T22:36:08.400Z,8.57
2022-09-22T22:38:37.226Z,7.88
2022-09-22T22:41:06.522Z,7.70
2022-09-22T22:43:35.287Z,6.15
2022-09-22T22:46:06.552Z,7.40
2022-09-22T22:48:36.761Z,7.35
2022-09-22T22:51:08.702Z,8.25
2022-09-22T22:53:37.429Z,7.20
2022-09-22T22:56:06.933Z,6.30
2022-09-22T22:58:39.173Z,6.75
2022-09-22T23:01:11.040Z,6.13
2022-09-22T23:03:41.286Z,8.52
2022-09-22T23:06:10.384Z,8.23
2022-09-22T23:08:38.845Z,7.20
2022-09-22T23:11:11.506Z,7.28
2022-09-22T23:13:47.485Z,5.95
2022-09-22T23:16:21.065Z,5.50
2022-09-22T23:18:53.334Z,7.15
2022-09-22T23:21:22.781Z,7.55
2022-09-22T23:23:52.047Z,7.10
2022-09-22T23:26:20.512Z,7.85
2022-09-22T23:28:48.994Z,7.28
2022-09-22T23:31:18.797Z,5.72
2022-09-22T23:33:49.781Z,6.13
2022-09-22T23:36:19.603Z,6.95
2022-09-22T23:38:54.511Z,6.13
2022-09-22T23:41:23.391Z,5.35
2022-09-22T23:43:51.939Z,7.25
2022-09-22T23:46:21.255Z,8.52
2022-09-22T23:48:51.098Z,9.65
2022-09-22T23:51:21.090Z,7.10
2022-09-22T23:53:52.111Z,6.22
2022-09-22T23:56:21.507Z,7.95
2022-09-22T23:58:50.224Z,7.60
